sensor_id;sensor_type;location;lat;lon;timestamp;P1;durP1;ratioP1;P2;durP2;ratioP2
74612;SDS011;63119;51.788;8.824;2023-03-16T00:01:24;8.23;;;4.45;;
74612;SDS011;63119;51.788;8.824;2023-03-16T00:03:50;8.50;;;3.63;;
74612;SDS011;63119;51.788;8.824;2023-03-16T00:06:15;8.13;;;4.10;;
74612;SDS011;63119;51.788;8.824;2023-03-16T00:08:41;11.27;;;4.40;;
74612;SDS011;63119;51.788;8.824;2023-03-16T00:11:07;8.65;;;3.42;;
74612;SDS011;63119;51.788;8.824;2023-03-16T00:13:32;4.93;;;2.63;;
74612;SDS011;63119;51.788;8.824;2023-03-16T00:15:58;11.07;;;4.00;;
74612;SDS011;63119;51.788;8.824;2023-03-16T00:18:25;11.55;;;3.65;;
74612;SDS011;63119;51.788;8.824;2023-03-16T00:20:59;8.27;;;4.07;;
74612;SDS011;63119;51.788;8.824;2023-03-16T00:23:29;7.88;;;3.40;;
74612;SDS011;63119;51.788;8.824;2023-03-16T00:25:59;7.90;;;3.70;;
74612;SDS011;63119;51.788;8.824;2023-03-16T00:28:27;9.38;;;4.07;;
74612;SDS011;63119;51.788;8.824;2023-03-16T00:30:58;12.57;;;5.25;;
74612;SDS011;63119;51.788;8.824;2023-03-16T00:33:24;6.15;;;3.50;;
74612;SDS011;63119;51.788;8.824;2023-03-16T00:35:50;7.40;;;3.28;;
74612;SDS011;63119;51.788;8.824;2023-03-16T00:38:25;8.30;;;3.65;;
74612;SDS011;63119;51.788;8.824;2023-03-16T00:40:51;6.93;;;3.58;;
74612;SDS011;63119;51.788;8.824;2023-03-16T00:43:17;9.00;;;3.78;;
74612;SDS011;63119;51.788;8.824;2023-03-16T00:45:42;8.43;;;4.07;;
74612;SDS011;63119;51.788;8.824;2023-03-16T00:48:08;7.30;;;3.67;;
74612;SDS011;63119;51.788;8.824;2023-03-16T00:50:35;7.43;;;3.10;;
74612;SDS011;63119;51.788;8.824;2023-03-16T00:53:00;8.87;;;3.03;;
74612;SDS011;63119;51.788;8.824;2023-03-16T00:55:25;7.40;;;2.40;;
74612;SDS011;63119;51.788;8.824;2023-03-16T00:57:51;6.50;;;3.00;;
74612;SDS011;63119;51.788;8.824;2023-03-16T01:00:16;5.07;;;2.50;;
74612;SDS011;63119;51.788;8.824;2023-03-16T01:05:10;5.67;;;2.37;;
74612;SDS011;63119;51.788;8.824;2023-03-16T01:07:37;2.53;;;1.70;;
74612;SDS011;63119;51.788;8.824;2023-03-16T01:10:03;3.60;;;1.85;;
74612;SDS011;63119;51.788;8.824;2023-03-16T01:12:28;5.97;;;2.35;;
74612;SDS011;63119;51.788;8.824;2023-03-16T01:14:54;2.97;;;1.83;;
74612;SDS011;63119;51.788;8.824;2023-03-16T01:17:19;5.13;;;2.60;;
74612;SDS011;63119;51.788;8.824;2023-03-16T01:19:46;6.82;;;2.20;;
74612;SDS011;63119;51.788;8.824;2023-03-16T01:22:12;3.90;;;2.00;;
74612;SDS011;63119;51.788;8.824;2023-03-16T01:24:37;5.03;;;1.90;;
74612;SDS011;63119;51.788;8.824;2023-03-16T01:27:04;3.25;;;1.98;;
74612;SDS011;63119;51.788;8.824;2023-03-16T01:29:30;3.22;;;2.03;;
74612;SDS011;63119;51.788;8.824;2023-03-16T01:31:55;5.68;;;2.10;;
74612;SDS011;63119;51.788;8.824;2023-03-16T01:34:21;5.47;;;2.50;;
74612;SDS011;63119;51.788;8.824;2023-03-16T01:36:47;6.72;;;2.55;;
74612;SDS011;63119;51.788;8.824;2023-03-16T01:39:13;7.00;;;2.13;;
74612;SDS011;63119;51.788;8.824;2023-03-16T01:41:39;4.35;;;2.22;;
74612;SDS011;63119;51.788;8.824;2023-03-16T01:44:06;5.68;;;2.35;;
74612;SDS011;63119;51.788;8.824;2023-03-16T01:46:35;4.80;;;2.55;;
74612;SDS011;63119;51.788;8.824;2023-03-16T01:51:42;4.93;;;2.45;;
74612;SDS011;63119;51.788;8.824;2023-03-16T01:54:14;4.72;;;2.20;;
74612;SDS011;63119;51.788;8.824;2023-03-16T01:59:40;8.95;;;2.97;;
74612;SDS011;63119;51.788;8.824;2023-03-16T02:02:08;6.53;;;2.50;;
74612;SDS011;63119;51.788;8.824;2023-03-16T02:07:14;7.57;;;1.92;;
74612;SDS011;63119;51.788;8.824;2023-03-16T02:09:41;4.63;;;2.28;;
74612;SDS011;63119;51.788;8.824;2023-03-16T02:12:10;4.60;;;2.13;;
74612;SDS011;63119;51.788;8.824;2023-03-16T02:14:42;5.32;;;2.50;;
74612;SDS011;63119;51.788;8.824;2023-03-16T02:17:08;6.32;;;2.50;;
74612;SDS011;63119;51.788;8.824;2023-03-16T02:19:52;5.57;;;1.80;;
74612;SDS011;63119;51.788;8.824;2023-03-16T02:22:36;4.03;;;1.40;;
74612;SDS011;63119;51.788;8.824;2023-03-16T02:25:06;3.67;;;1.60;;
74612;SDS011;63119;51.788;8.824;2023-03-16T02:27:40;5.45;;;2.00;;
74612;SDS011;63119;51.788;8.824;2023-03-16T02:30:13;4.85;;;2.00;;
74612;SDS011;63119;51.788;8.824;2023-03-16T02:32:42;4.63;;;1.80;;
74612;SDS011;63119;51.788;8.824;2023-03-16T02:35:10;4.00;;;1.80;;
74612;SDS011;63119;51.788;8.824;2023-03-16T02:37:36;3.20;;;1.90;;
74612;SDS011;63119;51.788;8.824;2023-03-16T02:40:12;3.00;;;1.90;;
74612;SDS011;63119;51.788;8.824;2023-03-16T02:45:23;4.78;;;1.80;;
74612;SDS011;63119;51.788;8.824;2023-03-16T02:47:52;5.53;;;1.80;;
74612;SDS011;63119;51.788;8.824;2023-03-16T02:50:19;8.20;;;2.50;;
74612;SDS011;63119;51.788;8.824;2023-03-16T02:52:44;3.25;;;1.63;;
74612;SDS011;63119;51.788;8.824;2023-03-16T02:55:11;4.78;;;1.90;;
74612;SDS011;63119;51.788;8.824;2023-03-16T02:57:37;4.50;;;1.73;;
74612;SDS011;63119;51.788;8.824;2023-03-16T03:00:02;3.70;;;1.70;;
74612;SDS011;63119;51.788;8.824;2023-03-16T03:02:35;4.85;;;1.80;;
74612;SDS011;63119;51.788;8.824;2023-03-16T03:05:00;4.17;;;1.90;;
74612;SDS011;63119;51.788;8.824;2023-03-16T03:07:26;8.47;;;2.40;;
74612;SDS011;63119;51.788;8.824;2023-03-16T03:09:55;5.82;;;2.05;;
74612;SDS011;63119;51.788;8.824;2023-03-16T03:12:21;5.47;;;2.00;;
74612;SDS011;63119;51.788;8.824;2023-03-16T03:14:46;5.17;;;2.37;;
74612;SDS011;63119;51.788;8.824;2023-03-16T03:17:11;4.50;;;1.87;;
74612;SDS011;63119;51.788;8.824;2023-03-16T03:19:37;5.82;;;2.03;;
74612;SDS011;63119;51.788;8.824;2023-03-16T03:22:03;9.45;;;2.53;;
74612;SDS011;63119;51.788;8.824;2023-03-16T03:24:30;5.18;;;2.10;;
74612;SDS011;63119;51.788;8.824;2023-03-16T03:26:56;3.63;;;1.95;;
74612;SDS011;63119;51.788;8.824;2023-03-16T03:29:25;3.53;;;2.15;;
74612;SDS011;63119;51.788;8.824;2023-03-16T03:31:58;3.42;;;2.20;;
74612;SDS011;63119;51.788;8.824;2023-03-16T03:34:23;5.23;;;2.47;;
74612;SDS011;63119;51.788;8.824;2023-03-16T03:36:48;4.23;;;1.97;;
74612;SDS011;63119;51.788;8.824;2023-03-16T03:39:14;6.93;;;2.50;;
74612;SDS011;63119;51.788;8.824;2023-03-16T03:41:39;5.93;;;2.40;;
74612;SDS011;63119;51.788;8.824;2023-03-16T03:44:05;6.65;;;2.53;;
74612;SDS011;63119;51.788;8.824;2023-03-16T03:46:30;10.37;;;2.10;;
74612;SDS011;63119;51.788;8.824;2023-03-16T03:48:55;4.47;;;1.97;;
74612;SDS011;63119;51.788;8.824;2023-03-16T03:51:25;4.28;;;2.10;;
74612;SDS011;63119;51.788;8.824;2023-03-16T03:53:50;5.60;;;2.13;;
74612;SDS011;63119;51.788;8.824;2023-03-16T03:56:15;6.87;;;2.17;;
74612;SDS011;63119;51.788;8.824;2023-03-16T03:58:41;3.27;;;2.10;;
74612;SDS011;63119;51.788;8.824;2023-03-16T04:01:06;3.77;;;2.00;;
74612;SDS011;63119;51.788;8.824;2023-03-16T04:03:31;6.13;;;2.30;;
74612;SDS011;63119;51.788;8.824;2023-03-16T04:05:56;8.00;;;2.83;;
74612;SDS011;63119;51.788;8.824;2023-03-16T04:08:22;8.03;;;2.57;;
74612;SDS011;63119;51.788;8.824;2023-03-16T04:10:47;5.43;;;2.40;;
74612;SDS011;63119;51.788;8.824;2023-03-16T04:13:12;5.30;;;2.10;;
74612;SDS011;63119;51.788;8.824;2023-03-16T04:15:37;6.90;;;2.67;;
74612;SDS011;63119;51.788;8.824;2023-03-16T04:18:03;5.82;;;2.28;;
74612;SDS011;63119;51.788;8.824;2023-03-16T04:20:28;5.90;;;2.78;;
74612;SDS011;63119;51.788;8.824;2023-03-16T04:22:53;4.97;;;2.63;;
74612;SDS011;63119;51.788;8.824;2023-03-16T04:25:22;4.93;;;2.60;;
74612;SDS011;63119;51.788;8.824;2023-03-16T04:27:50;9.90;;;2.42;;
74612;SDS011;63119;51.788;8.824;2023-03-16T04:30:15;5.38;;;2.30;;
74612;SDS011;63119;51.788;8.824;2023-03-16T04:32:41;6.83;;;1.93;;
74612;SDS011;63119;51.788;8.824;2023-03-16T04:35:06;5.40;;;2.45;;
74612;SDS011;63119;51.788;8.824;2023-03-16T04:37:33;4.53;;;2.33;;
74612;SDS011;63119;51.788;8.824;2023-03-16T04:39:58;5.67;;;2.57;;
74612;SDS011;63119;51.788;8.824;2023-03-16T04:42:24;6.75;;;2.28;;
74612;SDS011;63119;51.788;8.824;2023-03-16T04:44:49;5.37;;;2.53;;
74612;SDS011;63119;51.788;8.824;2023-03-16T04:47:15;5.77;;;2.53;;
74612;SDS011;63119;51.788;8.824;2023-03-16T04:49:41;7.18;;;3.08;;
74612;SDS011;63119;51.788;8.824;2023-03-16T04:52:06;5.60;;;2.27;;
74612;SDS011;63119;51.788;8.824;2023-03-16T04:54:33;8.10;;;2.88;;
74612;SDS011;63119;51.788;8.824;2023-03-16T04:56:59;7.65;;;2.65;;
74612;SDS011;63119;51.788;8.824;2023-03-16T04:59:25;7.63;;;2.63;;
74612;SDS011;63119;51.788;8.824;2023-03-16T05:01:51;3.17;;;1.92;;
74612;SDS011;63119;51.788;8.824;2023-03-16T05:04:16;11.50;;;2.70;;
74612;SDS011;63119;51.788;8.824;2023-03-16T05:06:41;6.07;;;2.85;;
74612;SDS011;63119;51.788;8.824;2023-03-16T05:09:07;4.30;;;2.50;;
74612;SDS011;63119;51.788;8.824;2023-03-16T05:11:33;4.03;;;2.35;;
74612;SDS011;63119;51.788;8.824;2023-03-16T05:13:59;6.10;;;2.58;;
74612;SDS011;63119;51.788;8.824;2023-03-16T05:16:25;4.20;;;2.25;;
74612;SDS011;63119;51.788;8.824;2023-03-16T05:18:53;4.03;;;2.50;;
74612;SDS011;63119;51.788;8.824;2023-03-16T05:26:11;5.03;;;2.40;;
74612;SDS011;63119;51.788;8.824;2023-03-16T05:28:37;7.10;;;2.97;;
74612;SDS011;63119;51.788;8.824;2023-03-16T05:31:02;7.50;;;2.47;;
74612;SDS011;63119;51.788;8.824;2023-03-16T05:33:28;7.00;;;2.40;;
74612;SDS011;63119;51.788;8.824;2023-03-16T05:35:53;6.83;;;3.20;;
74612;SDS011;63119;51.788;8.824;2023-03-16T05:38:18;5.07;;;2.27;;
74612;SDS011;63119;51.788;8.824;2023-03-16T05:40:43;5.83;;;2.30;;
74612;SDS011;63119;51.788;8.824;2023-03-16T05:43:10;4.75;;;2.60;;
74612;SDS011;63119;51.788;8.824;2023-03-16T05:45:35;5.25;;;2.78;;
74612;SDS011;63119;51.788;8.824;2023-03-16T05:48:00;5.43;;;3.03;;
74612;SDS011;63119;51.788;8.824;2023-03-16T05:50:26;9.80;;;2.57;;
74612;SDS011;63119;51.788;8.824;2023-03-16T05:52:52;6.97;;;3.03;;
74612;SDS011;63119;51.788;8.824;2023-03-16T05:55:18;5.80;;;2.70;;
74612;SDS011;63119;51.788;8.824;2023-03-16T05:57:43;8.53;;;3.10;;
74612;SDS011;63119;51.788;8.824;2023-03-16T06:00:10;6.80;;;2.78;;
74612;SDS011;63119;51.788;8.824;2023-03-16T06:02:41;7.45;;;3.08;;
74612;SDS011;63119;51.788;8.824;2023-03-16T06:05:07;6.47;;;2.60;;
74612;SDS011;63119;51.788;8.824;2023-03-16T06:07:33;8.20;;;2.90;;
74612;SDS011;63119;51.788;8.824;2023-03-16T06:09:59;8.57;;;2.75;;
74612;SDS011;63119;51.788;8.824;2023-03-16T06:12:24;9.07;;;2.97;;
74612;SDS011;63119;51.788;8.824;2023-03-16T06:14:50;6.20;;;2.93;;
74612;SDS011;63119;51.788;8.824;2023-03-16T06:17:15;7.72;;;2.47;;
74612;SDS011;63119;51.788;8.824;2023-03-16T06:19:40;7.50;;;2.90;;
74612;SDS011;63119;51.788;8.824;2023-03-16T06:22:06;6.23;;;2.60;;
74612;SDS011;63119;51.788;8.824;2023-03-16T06:24:32;4.20;;;2.08;;
74612;SDS011;63119;51.788;8.824;2023-03-16T06:26:57;5.37;;;2.80;;
74612;SDS011;63119;51.788;8.824;2023-03-16T06:29:22;7.07;;;2.77;;
74612;SDS011;63119;51.788;8.824;2023-03-16T06:31:49;7.25;;;2.83;;
74612;SDS011;63119;51.788;8.824;2023-03-16T06:34:16;6.43;;;2.65;;
74612;SDS011;63119;51.788;8.824;2023-03-16T06:36:41;7.27;;;2.23;;
74612;SDS011;63119;51.788;8.824;2023-03-16T06:39:06;5.90;;;2.50;;
74612;SDS011;63119;51.788;8.824;2023-03-16T06:41:32;6.47;;;2.60;;
74612;SDS011;63119;51.788;8.824;2023-03-16T06:43:59;6.25;;;2.85;;
74612;SDS011;63119;51.788;8.824;2023-03-16T06:46:25;4.95;;;2.50;;
74612;SDS011;63119;51.788;8.824;2023-03-16T06:48:50;5.10;;;2.10;;
74612;SDS011;63119;51.788;8.824;2023-03-16T06:51:15;5.40;;;2.13;;
74612;SDS011;63119;51.788;8.824;2023-03-16T06:53:40;4.57;;;2.30;;
74612;SDS011;63119;51.788;8.824;2023-03-16T06:56:06;9.97;;;3.30;;
74612;SDS011;63119;51.788;8.824;2023-03-16T06:58:31;9.77;;;2.95;;
74612;SDS011;63119;51.788;8.824;2023-03-16T07:00:59;5.03;;;2.93;;
74612;SDS011;63119;51.788;8.824;2023-03-16T07:03:25;4.10;;;2.20;;
74612;SDS011;63119;51.788;8.824;2023-03-16T07:05:50;8.07;;;2.60;;
74612;SDS011;63119;51.788;8.824;2023-03-16T07:08:16;5.73;;;2.20;;
74612;SDS011;63119;51.788;8.824;2023-03-16T07:10:41;5.43;;;2.03;;
74612;SDS011;63119;51.788;8.824;2023-03-16T07:13:06;6.27;;;2.13;;
74612;SDS011;63119;51.788;8.824;2023-03-16T07:15:31;3.93;;;2.10;;
74612;SDS011;63119;51.788;8.824;2023-03-16T07:17:57;7.60;;;2.20;;
74612;SDS011;63119;51.788;8.824;2023-03-16T07:20:22;3.33;;;2.03;;
74612;SDS011;63119;51.788;8.824;2023-03-16T07:22:47;4.93;;;1.80;;
74612;SDS011;63119;51.788;8.824;2023-03-16T07:25:12;5.07;;;2.05;;
74612;SDS011;63119;51.788;8.824;2023-03-16T07:27:38;5.47;;;2.00;;
74612;SDS011;63119;51.788;8.824;2023-03-16T07:30:05;5.35;;;2.33;;
74612;SDS011;63119;51.788;8.824;2023-03-16T07:32:31;2.83;;;1.83;;
74612;SDS011;63119;51.788;8.824;2023-03-16T07:34:56;6.60;;;2.20;;
74612;SDS011;63119;51.788;8.824;2023-03-16T07:37:22;3.28;;;1.92;;
74612;SDS011;63119;51.788;8.824;2023-03-16T07:39:49;4.18;;;2.00;;
74612;SDS011;63119;51.788;8.824;2023-03-16T07:42:15;5.82;;;2.45;;
74612;SDS011;63119;51.788;8.824;2023-03-16T07:44:40;4.83;;;2.00;;
74612;SDS011;63119;51.788;8.824;2023-03-16T07:47:06;4.50;;;2.30;;
74612;SDS011;63119;51.788;8.824;2023-03-16T07:49:31;4.38;;;2.38;;
74612;SDS011;63119;51.788;8.824;2023-03-16T07:51:56;7.33;;;2.53;;
74612;SDS011;63119;51.788;8.824;2023-03-16T07:54:21;5.50;;;2.63;;
74612;SDS011;63119;51.788;8.824;2023-03-16T07:56:48;5.25;;;2.53;;
74612;SDS011;63119;51.788;8.824;2023-03-16T07:59:13;5.05;;;2.00;;
74612;SDS011;63119;51.788;8.824;2023-03-16T08:01:39;4.88;;;2.30;;
74612;SDS011;63119;51.788;8.824;2023-03-16T08:04:04;3.93;;;2.37;;
74612;SDS011;63119;51.788;8.824;2023-03-16T08:06:29;9.23;;;2.23;;
74612;SDS011;63119;51.788;8.824;2023-03-16T08:08:55;6.55;;;2.25;;
74612;SDS011;63119;51.788;8.824;2023-03-16T08:11:20;7.57;;;2.90;;
74612;SDS011;63119;51.788;8.824;2023-03-16T08:13:51;4.13;;;2.15;;
74612;SDS011;63119;51.788;8.824;2023-03-16T08:16:21;5.45;;;2.20;;
74612;SDS011;63119;51.788;8.824;2023-03-16T08:18:50;6.03;;;2.42;;
74612;SDS011;63119;51.788;8.824;2023-03-16T08:21:16;4.75;;;2.22;;
74612;SDS011;63119;51.788;8.824;2023-03-16T08:23:42;5.03;;;2.30;;
74612;SDS011;63119;51.788;8.824;2023-03-16T08:26:11;5.40;;;2.20;;
74612;SDS011;63119;51.788;8.824;2023-03-16T08:28:36;6.10;;;2.37;;
74612;SDS011;63119;51.788;8.824;2023-03-16T08:31:01;5.03;;;2.17;;
74612;SDS011;63119;51.788;8.824;2023-03-16T08:33:27;4.93;;;2.40;;
74612;SDS011;63119;51.788;8.824;2023-03-16T08:35:52;6.87;;;2.33;;
74612;SDS011;63119;51.788;8.824;2023-03-16T08:38:18;3.35;;;2.05;;
74612;SDS011;63119;51.788;8.824;2023-03-16T08:40:44;5.63;;;2.40;;
74612;SDS011;63119;51.788;8.824;2023-03-16T08:48:02;3.83;;;2.10;;
74612;SDS011;63119;51.788;8.824;2023-03-16T08:50:28;4.22;;;2.25;;
74612;SDS011;63119;51.788;8.824;2023-03-16T08:52:54;5.23;;;2.70;;
74612;SDS011;63119;51.788;8.824;2023-03-16T08:55:19;6.03;;;2.77;;
74612;SDS011;63119;51.788;8.824;2023-03-16T08:57:44;8.03;;;2.70;;
74612;SDS011;63119;51.788;8.824;2023-03-16T09:00:10;5.40;;;2.13;;
74612;SDS011;63119;51.788;8.824;2023-03-16T09:02:37;5.40;;;2.60;;
74612;SDS011;63119;51.788;8.824;2023-03-16T09:05:04;4.38;;;2.28;;
74612;SDS011;63119;51.788;8.824;2023-03-16T09:07:32;5.82;;;2.58;;
74612;SDS011;63119;51.788;8.824;2023-03-16T09:09:59;4.00;;;2.20;;
74612;SDS011;63119;51.788;8.824;2023-03-16T09:12:24;4.78;;;2.90;;
74612;SDS011;63119;51.788;8.824;2023-03-16T09:14:50;4.63;;;2.38;;
74612;SDS011;63119;51.788;8.824;2023-03-16T09:17:15;3.90;;;2.27;;
74612;SDS011;63119;51.788;8.824;2023-03-16T09:19:40;7.53;;;2.47;;
74612;SDS011;63119;51.788;8.824;2023-03-16T09:22:06;5.07;;;2.50;;
74612;SDS011;63119;51.788;8.824;2023-03-16T09:24:31;5.47;;;2.60;;
74612;SDS011;63119;51.788;8.824;2023-03-16T09:26:57;4.93;;;2.63;;
74612;SDS011;63119;51.788;8.824;2023-03-16T09:29:22;3.80;;;2.33;;
74612;SDS011;63119;51.788;8.824;2023-03-16T09:31:48;4.97;;;2.00;;
74612;SDS011;63119;51.788;8.824;2023-03-16T09:34:14;4.40;;;2.72;;
74612;SDS011;63119;51.788;8.824;2023-03-16T09:36:40;4.35;;;2.15;;
74612;SDS011;63119;51.788;8.824;2023-03-16T09:39:05;4.70;;;2.30;;
74612;SDS011;63119;51.788;8.824;2023-03-16T09:46:35;5.22;;;2.25;;
74612;SDS011;63119;51.788;8.824;2023-03-16T09:49:07;3.97;;;2.20;;
74612;SDS011;63119;51.788;8.824;2023-03-16T09:51:47;5.80;;;2.40;;
74612;SDS011;63119;51.788;8.824;2023-03-16T09:56:56;5.30;;;2.50;;
74612;SDS011;63119;51.788;8.824;2023-03-16T09:59:23;4.40;;;2.45;;
74612;SDS011;63119;51.788;8.824;2023-03-16T10:05:08;4.32;;;2.08;;
74612;SDS011;63119;51.788;8.824;2023-03-16T10:13:12;4.13;;;2.17;;
74612;SDS011;63119;51.788;8.824;2023-03-16T10:15:46;4.63;;;2.03;;
74612;SDS011;63119;51.788;8.824;2023-03-16T10:18:14;3.70;;;2.00;;
74612;SDS011;63119;51.788;8.824;2023-03-16T10:20:45;3.25;;;1.52;;
74612;SDS011;63119;51.788;8.824;2023-03-16T10:23:21;3.88;;;1.77;;
74612;SDS011;63119;51.788;8.824;2023-03-16T10:25:50;4.97;;;2.08;;
74612;SDS011;63119;51.788;8.824;2023-03-16T10:28:21;3.08;;;1.88;;
74612;SDS011;63119;51.788;8.824;2023-03-16T10:30:50;2.92;;;1.67;;
74612;SDS011;63119;51.788;8.824;2023-03-16T10:33:19;6.65;;;1.70;;
74612;SDS011;63119;51.788;8.824;2023-03-16T10:38:40;3.60;;;2.17;;
74612;SDS011;63119;51.788;8.824;2023-03-16T10:43:56;3.45;;;1.67;;
74612;SDS011;63119;51.788;8.824;2023-03-16T10:46:35;5.68;;;2.05;;
74612;SDS011;63119;51.788;8.824;2023-03-16T10:49:05;5.45;;;2.08;;
74612;SDS011;63119;51.788;8.824;2023-03-16T10:51:32;4.40;;;2.15;;
74612;SDS011;63119;51.788;8.824;2023-03-16T10:54:07;3.08;;;1.63;;
74612;SDS011;63119;51.788;8.824;2023-03-16T10:56:38;3.70;;;2.10;;
74612;SDS011;63119;51.788;8.824;2023-03-16T11:01:58;3.15;;;1.90;;
74612;SDS011;63119;51.788;8.824;2023-03-16T11:04:29;3.22;;;2.10;;
74612;SDS011;63119;51.788;8.824;2023-03-16T11:06:56;4.03;;;2.15;;
74612;SDS011;63119;51.788;8.824;2023-03-16T11:09:23;3.88;;;2.08;;
74612;SDS011;63119;51.788;8.824;2023-03-16T11:11:50;7.07;;;2.88;;
74612;SDS011;63119;51.788;8.824;2023-03-16T11:14:18;4.60;;;2.03;;
74612;SDS011;63119;51.788;8.824;2023-03-16T11:16:51;4.57;;;2.10;;
74612;SDS011;63119;51.788;8.824;2023-03-16T11:19:32;7.03;;;1.77;;
74612;SDS011;63119;51.788;8.824;2023-03-16T11:22:03;5.22;;;2.28;;
74612;SDS011;63119;51.788;8.824;2023-03-16T11:27:16;5.43;;;2.20;;
74612;SDS011;63119;51.788;8.824;2023-03-16T11:29:55;5.38;;;2.40;;
74612;SDS011;63119;51.788;8.824;2023-03-16T11:32:29;3.97;;;1.88;;
74612;SDS011;63119;51.788;8.824;2023-03-16T11:34:59;3.67;;;1.85;;
74612;SDS011;63119;51.788;8.824;2023-03-16T11:37:32;5.13;;;2.20;;
74612;SDS011;63119;51.788;8.824;2023-03-16T11:40:10;5.75;;;1.88;;
74612;SDS011;63119;51.788;8.824;2023-03-16T11:42:59;5.25;;;1.80;;
74612;SDS011;63119;51.788;8.824;2023-03-16T11:45:40;3.00;;;1.70;;
74612;SDS011;63119;51.788;8.824;2023-03-16T11:48:19;2.78;;;1.80;;
74612;SDS011;63119;51.788;8.824;2023-03-16T11:53:48;3.72;;;2.30;;
74612;SDS011;63119;51.788;8.824;2023-03-16T11:56:29;5.60;;;2.03;;
74612;SDS011;63119;51.788;8.824;2023-03-16T12:04:48;4.93;;;1.70;;
74612;SDS011;63119;51.788;8.824;2023-03-16T12:13:26;4.10;;;2.10;;
74612;SDS011;63119;51.788;8.824;2023-03-16T12:16:04;2.60;;;1.67;;
74612;SDS011;63119;51.788;8.824;2023-03-16T12:21:06;6.90;;;1.80;;
74612;SDS011;63119;51.788;8.824;2023-03-16T12:23:43;3.58;;;1.40;;
74612;SDS011;63119;51.788;8.824;2023-03-16T12:26:16;3.95;;;1.80;;
74612;SDS011;63119;51.788;8.824;2023-03-16T12:28:43;4.65;;;1.70;;
74612;SDS011;63119;51.788;8.824;2023-03-16T12:31:27;3.53;;;1.85;;
74612;SDS011;63119;51.788;8.824;2023-03-16T12:42:17;3.92;;;1.48;;
74612;SDS011;63119;51.788;8.824;2023-03-16T12:50:31;3.30;;;1.48;;
74612;SDS011;63119;51.788;8.824;2023-03-16T12:52:57;2.85;;;1.40;;
74612;SDS011;63119;51.788;8.824;2023-03-16T12:55:23;5.85;;;1.60;;
74612;SDS011;63119;51.788;8.824;2023-03-16T12:57:57;2.65;;;1.65;;
74612;SDS011;63119;51.788;8.824;2023-03-16T13:00:32;4.35;;;1.85;;
74612;SDS011;63119;51.788;8.824;2023-03-16T13:03:01;3.05;;;1.25;;
74612;SDS011;63119;51.788;8.824;2023-03-16T13:05:33;2.85;;;1.55;;
74612;SDS011;63119;51.788;8.824;2023-03-16T13:08:10;2.35;;;1.40;;
74612;SDS011;63119;51.788;8.824;2023-03-16T13:10:38;2.67;;;1.27;;
74612;SDS011;63119;51.788;8.824;2023-03-16T13:13:08;3.20;;;1.15;;
74612;SDS011;63119;51.788;8.824;2023-03-16T13:15:39;3.60;;;1.20;;
74612;SDS011;63119;51.788;8.824;2023-03-16T13:20:34;2.33;;;1.30;;
74612;SDS011;63119;51.788;8.824;2023-03-16T13:24:11;1.60;;;1.10;;
74612;SDS011;63119;51.788;8.824;2023-03-16T13:26:37;1.88;;;1.20;;
74612;SDS011;63119;51.788;8.824;2023-03-16T13:29:27;1.70;;;0.93;;
74612;SDS011;63119;51.788;8.824;2023-03-16T13:31:58;2.28;;;1.33;;
74612;SDS011;63119;51.788;8.824;2023-03-16T13:34:28;1.77;;;1.20;;
74612;SDS011;63119;51.788;8.824;2023-03-16T13:37:01;2.88;;;1.17;;
74612;SDS011;63119;51.788;8.824;2023-03-16T13:39:27;4.47;;;1.50;;
74612;SDS011;63119;51.788;8.824;2023-03-16T13:44:29;3.05;;;1.80;;
74612;SDS011;63119;51.788;8.824;2023-03-16T13:46:55;3.42;;;1.77;;
74612;SDS011;63119;51.788;8.824;2023-03-16T13:49:21;3.55;;;1.70;;
74612;SDS011;63119;51.788;8.824;2023-03-16T13:51:47;2.63;;;1.48;;
74612;SDS011;63119;51.788;8.824;2023-03-16T13:56:54;2.92;;;1.70;;
74612;SDS011;63119;51.788;8.824;2023-03-16T13:59:22;4.50;;;1.50;;
74612;SDS011;63119;51.788;8.824;2023-03-16T14:01:47;4.53;;;1.55;;
74612;SDS011;63119;51.788;8.824;2023-03-16T14:04:22;4.57;;;2.10;;
74612;SDS011;63119;51.788;8.824;2023-03-16T14:06:55;3.25;;;1.38;;
74612;SDS011;63119;51.788;8.824;2023-03-16T14:09:23;3.45;;;1.65;;
74612;SDS011;63119;51.788;8.824;2023-03-16T14:11:54;2.40;;;1.30;;
74612;SDS011;63119;51.788;8.824;2023-03-16T14:14:31;2.67;;;1.50;;
74612;SDS011;63119;51.788;8.824;2023-03-16T14:17:13;3.75;;;1.90;;
74612;SDS011;63119;51.788;8.824;2023-03-16T14:19:44;6.10;;;1.75;;
74612;SDS011;63119;51.788;8.824;2023-03-16T14:22:15;3.67;;;1.85;;
74612;SDS011;63119;51.788;8.824;2023-03-16T14:24:43;3.63;;;1.70;;
74612;SDS011;63119;51.788;8.824;2023-03-16T14:27:25;2.50;;;1.40;;
74612;SDS011;63119;51.788;8.824;2023-03-16T14:30:00;5.25;;;1.80;;
74612;SDS011;63119;51.788;8.824;2023-03-16T14:35:19;2.35;;;1.55;;
74612;SDS011;63119;51.788;8.824;2023-03-16T14:37:45;4.10;;;1.75;;
74612;SDS011;63119;51.788;8.824;2023-03-16T14:40:20;5.70;;;1.63;;
74612;SDS011;63119;51.788;8.824;2023-03-16T14:42:51;1.83;;;1.02;;
74612;SDS011;63119;51.788;8.824;2023-03-16T14:45:19;2.60;;;1.65;;
74612;SDS011;63119;51.788;8.824;2023-03-16T14:47:45;3.95;;;1.67;;
74612;SDS011;63119;51.788;8.824;2023-03-16T14:50:16;2.95;;;1.40;;
74612;SDS011;63119;51.788;8.824;2023-03-16T14:52:46;3.00;;;1.45;;
74612;SDS011;63119;51.788;8.824;2023-03-16T14:55:13;2.28;;;1.15;;
74612;SDS011;63119;51.788;8.824;2023-03-16T14:57:40;2.55;;;1.40;;
74612;SDS011;63119;51.788;8.824;2023-03-16T15:00:07;2.10;;;1.20;;
74612;SDS011;63119;51.788;8.824;2023-03-16T15:02:37;1.90;;;1.30;;
74612;SDS011;63119;51.788;8.824;2023-03-16T15:07:37;2.22;;;1.33;;
74612;SDS011;63119;51.788;8.824;2023-03-16T15:12:39;2.50;;;1.23;;
74612;SDS011;63119;51.788;8.824;2023-03-16T15:15:14;3.10;;;1.45;;
74612;SDS011;63119;51.788;8.824;2023-03-16T15:17:42;2.20;;;1.45;;
74612;SDS011;63119;51.788;8.824;2023-03-16T15:20:13;2.58;;;1.10;;
74612;SDS011;63119;51.788;8.824;2023-03-16T15:22:40;2.53;;;1.30;;
74612;SDS011;63119;51.788;8.824;2023-03-16T15:28:03;1.98;;;1.20;;
74612;SDS011;63119;51.788;8.824;2023-03-16T15:33:02;2.28;;;1.05;;
74612;SDS011;63119;51.788;8.824;2023-03-16T15:35:27;4.03;;;1.50;;
74612;SDS011;63119;51.788;8.824;2023-03-16T15:37:52;2.43;;;1.50;;
74612;SDS011;63119;51.788;8.824;2023-03-16T15:42:50;2.00;;;1.25;;
74612;SDS011;63119;51.788;8.824;2023-03-16T15:45:18;3.00;;;1.45;;
74612;SDS011;63119;51.788;8.824;2023-03-16T15:47:46;2.35;;;1.30;;
74612;SDS011;63119;51.788;8.824;2023-03-16T15:50:13;2.80;;;1.42;;
74612;SDS011;63119;51.788;8.824;2023-03-16T15:52:40;2.42;;;1.30;;
74612;SDS011;63119;51.788;8.824;2023-03-16T15:55:14;3.17;;;1.38;;
74612;SDS011;63119;51.788;8.824;2023-03-16T15:57:44;2.22;;;1.38;;
74612;SDS011;63119;51.788;8.824;2023-03-16T16:00:24;2.10;;;1.13;;
74612;SDS011;63119;51.788;8.824;2023-03-16T16:02:52;3.40;;;1.50;;
74612;SDS011;63119;51.788;8.824;2023-03-16T16:05:19;2.70;;;1.17;;
74612;SDS011;63119;51.788;8.824;2023-03-16T16:07:44;2.30;;;1.40;;
74612;SDS011;63119;51.788;8.824;2023-03-16T16:10:13;2.55;;;1.20;;
74612;SDS011;63119;51.788;8.824;2023-03-16T16:12:39;4.05;;;1.70;;
74612;SDS011;63119;51.788;8.824;2023-03-16T16:15:10;3.00;;;1.70;;
74612;SDS011;63119;51.788;8.824;2023-03-16T16:17:43;5.88;;;2.22;;
74612;SDS011;63119;51.788;8.824;2023-03-16T16:20:19;2.40;;;1.40;;
74612;SDS011;63119;51.788;8.824;2023-03-16T16:22:47;2.88;;;1.50;;
74612;SDS011;63119;51.788;8.824;2023-03-16T16:25:13;2.35;;;1.25;;
74612;SDS011;63119;51.788;8.824;2023-03-16T16:27:38;4.85;;;1.75;;
74612;SDS011;63119;51.788;8.824;2023-03-16T16:30:17;3.45;;;1.60;;
74612;SDS011;63119;51.788;8.824;2023-03-16T16:32:46;2.72;;;1.48;;
74612;SDS011;63119;51.788;8.824;2023-03-16T16:35:15;2.63;;;1.70;;
74612;SDS011;63119;51.788;8.824;2023-03-16T16:37:51;3.30;;;1.60;;
74612;SDS011;63119;51.788;8.824;2023-03-16T16:40:18;4.43;;;1.40;;